M I D A S
Marine Information and Data Acquisition System
Tripno 777 of the Zeeleeuw from 2004-06-01 07:27:25 to 2004-06-01 14:19:10
Back to CruiseResearch ActivitiesStationsMapUnderway DataData graphs

EquipmentUnitsComments
TimeDGPSUTC
LatitudeDGPSDM.mWGS84
LongitudeDGPSDM.mWGS84
SpeedMeteo Stationm/sRelative wind speed
DirectionMeteo StationdegRelative wind direction
TemperatureMeteo Stationdeg CelciusAir temperature
PressureMeteo StationPaAtmospheric pressure
HumidityMeteo Station%Relative humidity
Missing or incorrect values are displayed as -999
Metereological data collected by the RV Zeeleeuw from 2004-06-01 07:27:25 to 2004-06-01 14:19:10
                                                                                    Next 1000 lines
Time Latitude Longitude Speed Direction Temperature Pressure Humidity
2004-06-01 07:27:36 51°13.596 2°56.095 3.2 30 14.8 101460 80
2004-06-01 07:27:41 51°13.596 2°56.095 3.4 26 14.8 101460 80
2004-06-01 07:27:45 51°13.596 2°56.095 3.2 5 14.8 101460 80
2004-06-01 07:27:50 51°13.595 2°56.096 3.3 33 14.8 101460 80
2004-06-01 07:27:56 51°13.595 2°56.097 3.9 21 14.8 101460 80
2004-06-01 07:28:01 51°13.594 2°56.099 3.2 6 14.8 101460 80
2004-06-01 07:28:06 51°13.592 2°56.101 3.2 17 14.8 101460 80
2004-06-01 07:28:11 51°13.591 2°56.104 3.7 40 14.8 101460 80
2004-06-01 07:28:16 51°13.589 2°56.107 3.5 27 14.8 101460 80
2004-06-01 07:28:21 51°13.587 2°56.111 3.8 34 14.8 101460 80
2004-06-01 07:28:25 51°13.585 2°56.114 3 24 14.8 101460 80
2004-06-01 07:28:31 51°13.582 2°56.119 3.3 31 14.8 101460 80
2004-06-01 07:28:36 51°13.58 2°56.124 2.6 20 14.8 101460 80
2004-06-01 07:28:41 51°13.577 2°56.129 2.9 23 14.8 101460 80
2004-06-01 07:28:45 51°13.575 2°56.133 2.4 22 14.8 101450 80
2004-06-01 07:28:51 51°13.571 2°56.139 3.5 17 14.8 101450 80
2004-06-01 07:28:55 51°13.569 2°56.144 3.5 18 14.8 101450 80
2004-06-01 07:29:01 51°13.565 2°56.151 3.8 15 14.8 101450 80
2004-06-01 07:29:04 51°13.563 2°56.154 3.9 16 14.8 101460 80
2004-06-01 07:29:11 51°13.558 2°56.162 3.6 20 14.8 101460 80
2004-06-01 07:29:16 51°13.554 2°56.168 3.4 3 14.8 101460 80
2004-06-01 07:29:21 51°13.551 2°56.174 2.4 1 14.8 101460 80
2004-06-01 07:29:25 51°13.548 2°56.179 2.8   14.8 101460 80
2004-06-01 07:29:31 51°13.544 2°56.186 3.1 7 14.8 101460 80
2004-06-01 07:29:36 51°13.541 2°56.193 3.7 4 14.8 101460 80
2004-06-01 07:29:41 51°13.539 2°56.2 3.7 15 14.8 101460 80
2004-06-01 07:29:45 51°13.537 2°56.205 3.2 25 14.8 101460 80
2004-06-01 07:29:51 51°13.535 2°56.215 4.2 33 14.8 101460 80
2004-06-01 07:29:55 51°13.533 2°56.221 4.2 34 14.8 101450 80
2004-06-01 07:30:01 51°13.533 2°56.231 4.1 45 14.8 101450 80
2004-06-01 07:30:05 51°13.532 2°56.237 3.3 42 14.8 101460 80
2004-06-01 07:30:11 51°13.533 2°56.247 3.5 45 14.8 101460 80
2004-06-01 07:30:15 51°13.533 2°56.253 3.5 49 14.8 101460 80
2004-06-01 07:30:21 51°13.534 2°56.259 4.2 65 14.8 101460 80
2004-06-01 07:30:25 51°13.535 2°56.263 3.1 72 14.9 101460 80
2004-06-01 07:30:31 51°13.535 2°56.266 2.6 87 14.9 101460 80
2004-06-01 07:30:36 51°13.535 2°56.267 2.3 96 14.8 101450 80
2004-06-01 07:30:41 51°13.535 2°56.267 2.6 98 14.8 101450 80
2004-06-01 07:30:45 51°13.535 2°56.267 2.2 92 14.9 101460 80
2004-06-01 07:30:51 51°13.535 2°56.268 2.3 85 14.9 101460 80
2004-06-01 07:30:56 51°13.536 2°56.269 2.9 90 14.8 101460 80
2004-06-01 07:31:01 51°13.537 2°56.272 3.2 85 14.8 101460 80
2004-06-01 07:31:05 51°13.538 2°56.274 3.2 101 14.9 101460 80
2004-06-01 07:31:11 51°13.54 2°56.278 3 99 14.9 101460 80
2004-06-01 07:31:15 51°13.541 2°56.28 3.1 104 14.9 101460 80
2004-06-01 07:31:21 51°13.542 2°56.281 2.7 142 14.9 101460 80
2004-06-01 07:31:24 51°13.543 2°56.282 2.7 142 14.9 101460 80
2004-06-01 07:31:31 51°13.542 2°56.282 3.5 140 14.9 101460 80
2004-06-01 07:31:36 51°13.542 2°56.281 3.3 143 14.9 101450 80
2004-06-01 07:31:41 51°13.54 2°56.28 3.5 144 14.9 101450 80
2004-06-01 07:31:45 51°13.539 2°56.279 3.5 159 14.9 101450 80
2004-06-01 07:31:51 51°13.536 2°56.277 3.3 157 14.9 101450 80
2004-06-01 07:31:56 51°13.533 2°56.275 3.2 158 14.9 101450 80
2004-06-01 07:32:01 51°13.53 2°56.274 3 172 14.9 101450 80
2004-06-01 07:32:07 51°13.527 2°56.272 2.5 171 14.9 101460 80
2004-06-01 07:32:12 51°13.526 2°56.271 2 162 14.9 101460 80
2004-06-01 07:32:17 51°13.525 2°56.27 2.4 158 14.9 101460 80
2004-06-01 07:32:21 51°13.524 2°56.27 2.2 155 14.9 101460 80
2004-06-01 07:32:27 51°13.524 2°56.27 2.1 156 14.8 101460 80
2004-06-01 07:32:31 51°13.525 2°56.27 1.5 170 14.8 101460 80
2004-06-01 07:32:36 51°13.526 2°56.27 1.6 150 14.9 101460 80
2004-06-01 07:32:41 51°13.527 2°56.27 1.9 155 14.9 101460 80
2004-06-01 07:32:45 51°13.528 2°56.271 2 163 14.8 101460 80
2004-06-01 07:32:52 51°13.528 2°56.271 2.2 160 14.8 101460 80
2004-06-01 07:32:56 51°13.528 2°56.271 2.6 158 14.9 101460 80
2004-06-01 07:33:01 51°13.527 2°56.272 2.4 163 14.9 101460 80
2004-06-01 07:33:05 51°13.526 2°56.272 3.1 165 14.8 101460 80
2004-06-01 07:33:11 51°13.524 2°56.273 3.2 156 14.8 101460 80
2004-06-01 07:33:16 51°13.522 2°56.273 3.3 157 14.9 101460 80
2004-06-01 07:33:20 51°13.52 2°56.273 3.4 154 14.9 101460 80
2004-06-01 07:33:25 51°13.518 2°56.274 3 157 14.9 101460 80
2004-06-01 07:33:32 51°13.517 2°56.274 2.2 172 14.9 101460 80
2004-06-01 07:33:36 51°13.517 2°56.274 1.8 136 14.8 101460 80
2004-06-01 07:33:41 51°13.518 2°56.274 1.5 151 14.8 101460 80
2004-06-01 07:33:45 51°13.52 2°56.273 2.3 141 14.8 101460 80
2004-06-01 07:33:52 51°13.524 2°56.27 1.4 160 14.8 101460 80
2004-06-01 07:33:56 51°13.528 2°56.266 1.1 166 14.9 101460 80
2004-06-01 07:34:01 51°13.532 2°56.261 0.9 169 14.9 101460 80
2004-06-01 07:34:05 51°13.534 2°56.256 0.8 188 14.9 101460 80
2004-06-01 07:34:11 51°13.538 2°56.249 0.6 200 14.9 101460 80
2004-06-01 07:34:16 51°13.54 2°56.243 0.4 208 14.9 101460 80
2004-06-01 07:34:21 51°13.542 2°56.237 0.7 229 14.9 101460 80
2004-06-01 07:34:25 51°13.543 2°56.232 0.6 233 14.9 101460 80
2004-06-01 07:34:31 51°13.545 2°56.225 0.6 268 14.9 101460 80
2004-06-01 07:34:36 51°13.547 2°56.219 1.8 306 14.9 101460 80
2004-06-01 07:34:41 51°13.548 2°56.213 1.8 307 14.9 101460 80
2004-06-01 07:34:45 51°13.549 2°56.208 2.4 313 14.9 101460 80
2004-06-01 07:34:51 51°13.551 2°56.201 2.7 308 14.9 101460 80
2004-06-01 07:34:55 51°13.552 2°56.197 3.3 309 14.9 101460 80
2004-06-01 07:35:01 51°13.554 2°56.19 3.7 287 14.9 101460 80
2004-06-01 07:35:05 51°13.554 2°56.185 2.2 250 14.9 101460 80
2004-06-01 07:35:11 51°13.556 2°56.178 3.1 283 14.9 101460 80
2004-06-01 07:35:16 51°13.557 2°56.172 4 286 15 101460 80
2004-06-01 07:35:21 51°13.558 2°56.167 2.7 262 15 101460 80
2004-06-01 07:35:25 51°13.559 2°56.162 3.5 259 15 101460 80
2004-06-01 07:35:31 51°13.56 2°56.155 3.3 261 15 101460 80
2004-06-01 07:35:35 51°13.561 2°56.151 2.6 258 15 101460 80
2004-06-01 07:35:41 51°13.563 2°56.144 2.7 266 15 101460 80
2004-06-01 07:35:45 51°13.564 2°56.14 2.4 272 15 101460 80
2004-06-01 07:35:51 51°13.566 2°56.134 2.7 282 15 101460 80
2004-06-01 07:35:56 51°13.567 2°56.129 2.8 273 15 101460 80
2004-06-01 07:36:01 51°13.568 2°56.124 3 279 15 101460 80
2004-06-01 07:36:06 51°13.569 2°56.119 3.6 274 15 101460 80
2004-06-01 07:36:11 51°13.571 2°56.114 2.4 240 15 101460 80
2004-06-01 07:36:15 51°13.572 2°56.11 1.9 256 14.9 101460 79
2004-06-01 07:36:23 51°13.574 2°56.103 2 275 14.9 101460 79
2004-06-01 07:36:27 51°13.575 2°56.099 1.3 260 14.9 101460 79
2004-06-01 07:36:32 51°13.576 2°56.095 0.7 258 14.9 101460 79
2004-06-01 07:36:37 51°13.578 2°56.091 1.4 230 14.9 101460 79
2004-06-01 07:36:41 51°13.579 2°56.087 1.9 211 15 101460 79
2004-06-01 07:36:47 51°13.581 2°56.082 1.8 223 15 101460 79
2004-06-01 07:36:52 51°13.582 2°56.079 2 218 15 101460 79
2004-06-01 07:36:58 51°13.584 2°56.074 2.2 220 15 101460 79
2004-06-01 07:37:02 51°13.585 2°56.071 1.9 220 15 101460 79
2004-06-01 07:37:08 51°13.587 2°56.067 1.4 228 15 101460 79
2004-06-01 07:37:12 51°13.588 2°56.064 1.7 215 15 101470 79
2004-06-01 07:37:18 51°13.59 2°56.06 1.9 226 15 101470 79
2004-06-01 07:37:21 51°13.591 2°56.058 1.5 216 15 101460 79
2004-06-01 07:37:28 51°13.593 2°56.053 1.8 211 15 101460 79
2004-06-01 07:37:32 51°13.594 2°56.051 2.7 231 15 101460 79
2004-06-01 07:37:38 51°13.595 2°56.048 2.7 233 15 101460 79
2004-06-01 07:37:42 51°13.596 2°56.046 1.8 210 15 101460 79
2004-06-01 07:37:48 51°13.597 2°56.043 1.7 222 15 101460 79
2004-06-01 07:37:52 51°13.597 2°56.042 2.2 209 15 101460 79
2004-06-01 07:37:57 51°13.598 2°56.04 2.1 204 15 101460 79
2004-06-01 07:38:02 51°13.599 2°56.039 1.9 212 15 101460 79
2004-06-01 07:38:08 51°13.6 2°56.037 2.1 196 15 101460 79
2004-06-01 07:38:12 51°13.601 2°56.035 2.5 216 15 101460 79
2004-06-01 07:38:18 51°13.602 2°56.033 2.9 207 15 101460 79
2004-06-01 07:38:23 51°13.602 2°56.031 3.6 211 15 101470 79
2004-06-01 07:38:28 51°13.603 2°56.029 3.2 211 15 101470 79
2004-06-01 07:38:33 51°13.604 2°56.027 3 211 15 101460 79
2004-06-01 07:38:38 51°13.605 2°56.025 2.9 211 15 101460 79
2004-06-01 07:38:42 51°13.606 2°56.024 3.6 208 15 101470 79
2004-06-01 07:38:48 51°13.607 2°56.022 3.4 204 15 101470 79
2004-06-01 07:38:52 51°13.608 2°56.02 2.6 183 15 101470 79
2004-06-01 07:38:58 51°13.609 2°56.018 2 182 15 101470 79
2004-06-01 07:39:03 51°13.61 2°56.017 1.6 223 14.9 101470 79
2004-06-01 07:39:08 51°13.61 2°56.016 1.8 235 14.9 101470 79
2004-06-01 07:39:12 51°13.611 2°56.015 2.5 203 15 101460 79
2004-06-01 07:39:18 51°13.611 2°56.014 2.7 194 15 101460 79
2004-06-01 07:39:23 51°13.611 2°56.014 1.5 187 15 101460 79
2004-06-01 07:39:28 51°13.611 2°56.013 2.6 203 15 101460 79
2004-06-01 07:39:32 51°13.611 2°56.012 2.4 235 15 101460 79
2004-06-01 07:39:38 51°13.611 2°56.012 2.8 207 15 101460 79
2004-06-01 07:39:42 51°13.611 2°56.012 0.9 184 15 101470 79
2004-06-01 07:39:48 51°13.612 2°56.011 1.2 162 15 101470 79
2004-06-01 07:39:53 51°13.612 2°56.011 2.3 190 15.1 101470 79
2004-06-01 07:39:58 51°13.613 2°56.011 2.2 181 15.1 101470 79
2004-06-01 07:40:02 51°13.613 2°56.01 2.3 209 15.1 101460 79
2004-06-01 07:40:08 51°13.613 2°56.009 2.5 217 15.1 101460 79
2004-06-01 07:40:12 51°13.614 2°56.008 1.7 201 15.1 101470 79
2004-06-01 07:40:18 51°13.614 2°56.007 1.5 206 15.1 101470 79
2004-06-01 07:40:22 51°13.614 2°56.006 2 198 15.1 101460 79
2004-06-01 07:40:28 51°13.614 2°56.004 2.2 186 15.1 101460 79
2004-06-01 07:40:33 51°13.614 2°56.003 2.5 181 15.2 101460 79
2004-06-01 07:40:38 51°13.615 2°56.003 1.6 216 15.2 101460 79
2004-06-01 07:40:42 51°13.615 2°56.003 1.4 207 15.2 101460 79
2004-06-01 07:40:48 51°13.615 2°56.002 1.1 176 15.2 101460 79
2004-06-01 07:40:52 51°13.615 2°56.001 0.9 244 15.2 101460 79
2004-06-01 07:40:58 51°13.615 2°56.001 0.6 153 15.2 101460 79
2004-06-01 07:41:02 51°13.615 2°56 0.9 188 15.2 101470 79
2004-06-01 07:41:08 51°13.616 2°55.999 1.2 177 15.2 101470 79
2004-06-01 07:41:12 51°13.616 2°55.998 0.8 239 15.2 101460 79
2004-06-01 07:41:18 51°13.617 2°55.996 1 256 15.2 101460 79
2004-06-01 07:41:22 51°13.617 2°55.994 0.6 252 15.3 101460 79
2004-06-01 07:41:28 51°13.619 2°55.99 1.5 191 15.3 101460 79
2004-06-01 07:41:32 51°13.62 2°55.987 1.1 189 15.3 101460 79
2004-06-01 07:41:38 51°13.622 2°55.982 1.2 216 15.3 101460 79
2004-06-01 07:41:42 51°13.624 2°55.978 0.5 271 15.3 101460 79
2004-06-01 07:41:48 51°13.627 2°55.971 0.2 275 15.3 101460 79
2004-06-01 07:41:52 51°13.629 2°55.966 0.5 43 15.3 101460 79
2004-06-01 07:41:58 51°13.632 2°55.957 1 18 15.3 101460 79
2004-06-01 07:42:00 51°13.634 2°55.954 0.6 346 15.3 101460 79
2004-06-01 07:42:08 51°13.639 2°55.941 0.4 334 15.3 101460 79
2004-06-01 07:42:13 51°13.642 2°55.934 1.8 279 15.3 101460 78
2004-06-01 07:42:18 51°13.646 2°55.926 1.6 280 15.3 101460 78
2004-06-01 07:42:23 51°13.649 2°55.918 2 289 15.3 101470 78
2004-06-01 07:42:28 51°13.652 2°55.911 2.8 272 15.3 101470 78
2004-06-01 07:42:33 51°13.655 2°55.903 2.9 262 15.3 101460 78
2004-06-01 07:42:37 51°13.658 2°55.897 3 269 15.3 101460 78
2004-06-01 07:42:40 51°13.659 2°55.892 2.6 263 15.3 101460 78
2004-06-01 07:42:48 51°13.665 2°55.88 2.6 271 15.3 101460 78
2004-06-01 07:42:52 51°13.668 2°55.874 1.9 273 15.3 101470 78
2004-06-01 07:42:58 51°13.672 2°55.866 1.6 291 15.3 101470 78
2004-06-01 07:43:02 51°13.674 2°55.859 1.6 311 15.3 101460 78
2004-06-01 07:43:08 51°13.679 2°55.85 1.6 293 15.3 101460 78
2004-06-01 07:43:12 51°13.682 2°55.844 1.9 276 15.3 101460 77
2004-06-01 07:43:18 51°13.686 2°55.834 1.5 274 15.3 101460 77
2004-06-01 07:43:21 51°13.689 2°55.829 1.3 278 15.3 101470 77
2004-06-01 07:43:28 51°13.695 2°55.816 1.1 283 15.3 101470 77
2004-06-01 07:43:32 51°13.698 2°55.808 1 318 15.3 101460 77
2004-06-01 07:43:38 51°13.704 2°55.795 1.4 296 15.3 101460 77
2004-06-01 07:43:43 51°13.709 2°55.784 1.7 359 15.2 101460 77
2004-06-01 07:43:48 51°13.715 2°55.773 1.6 360 15.2 101460 77
2004-06-01 07:43:52 51°13.72 2°55.764 2.3 340 15.3 101460 77
2004-06-01 07:43:58 51°13.728 2°55.75 2.7 335 15.3 101460 77
2004-06-01 07:44:03 51°13.735 2°55.739 2.8 309 15.3 101460 77
2004-06-01 07:44:08 51°13.742 2°55.727 3 308 15.3 101460 77
2004-06-01 07:44:13 51°13.75 2°55.716 2.9 313 15.2 101460 77
2004-06-01 07:44:18 51°13.759 2°55.705 2.4 301 15.2 101460 77
2004-06-01 07:44:22 51°13.766 2°55.697 1.9 314 15.3 101460 78
2004-06-01 07:44:28 51°13.777 2°55.685 1.7 315 15.3 101460 78
2004-06-01 07:44:32 51°13.784 2°55.677 1.2 326 15.3 101460 78
2004-06-01 07:44:36 51°13.792 2°55.67 0.8 330 15.3 101460 78
2004-06-01 07:44:43 51°13.806 2°55.658 1 19 15.2 101460 78
2004-06-01 07:44:48 51°13.816 2°55.65 1.1 30 15.2 101460 78
2004-06-01 07:44:52 51°13.825 2°55.644 1 36 15.3 101460 78
2004-06-01 07:44:58 51°13.837 2°55.636 0.7 36 15.3 101460 78
2004-06-01 07:45:02 51°13.846 2°55.63 1.1 50 15.2 101460 77
2004-06-01 07:45:08 51°13.859 2°55.622 0.8 61 15.2 101460 77
2004-06-01 07:45:13 51°13.87 2°55.616 0.8 61 15.2 101460 77
2004-06-01 07:45:18 51°13.881 2°55.609 0.9 61 15.2 101460 77
2004-06-01 07:45:23 51°13.893 2°55.603 1 66 15.2 101460 77
2004-06-01 07:45:28 51°13.904 2°55.597 1.2 70 15.2 101460 77
2004-06-01 07:45:32 51°13.913 2°55.592 1.1 70 15.2 101460 77
2004-06-01 07:45:38 51°13.926 2°55.584 1.2 50 15.2 101460 77
2004-06-01 07:45:42 51°13.935 2°55.579 1.4 18 15.2 101460 77
2004-06-01 07:45:48 51°13.949 2°55.571 1.3 14 15.2 101460 77
2004-06-01 07:45:52 51°13.958 2°55.566 0.9 11 15.2 101460 77
2004-06-01 07:45:58 51°13.971 2°55.558 0.7 11 15.2 101460 77
2004-06-01 07:46:02 51°13.98 2°55.554 0.6 5 15.2 101450 77
2004-06-01 07:46:08 51°13.994 2°55.546 0.4 4 15.2 101450 77
2004-06-01 07:46:13 51°14.006 2°55.54 0.4 10 15.2 101460 77
2004-06-01 07:46:18 51°14.017 2°55.534 0.3 10 15.2 101460 77
2004-06-01 07:46:22 51°14.027 2°55.529 0.1 13 15.2 101460 77
2004-06-01 07:46:28 51°14.04 2°55.521 0.2 27 15.2 101460 77
2004-06-01 07:46:32 51°14.049 2°55.515 0.3 27 15.2 101460 77
2004-06-01 07:46:38 51°14.063 2°55.504 0.2 26 15.2 101460 77
2004-06-01 07:46:42 51°14.072 2°55.496 0.8 354 15.2 101450 77
2004-06-01 07:46:48 51°14.085 2°55.483 1 353 15.2 101450 77
2004-06-01 07:46:52 51°14.094 2°55.475 1.3 342 15.1 101450 77
2004-06-01 07:46:58 51°14.107 2°55.46 2 335 15.1 101450 77
2004-06-01 07:47:02 51°14.116 2°55.45 1 3 15.1 101450 78
2004-06-01 07:47:08 51°14.129 2°55.435 1.2 20 15.1 101450 78
2004-06-01 07:47:12 51°14.138 2°55.425 0.9 350 15.2 101450 78
2004-06-01 07:47:18 51°14.151 2°55.408 0.8 352 15.2 101450 78
2004-06-01 07:47:22 51°14.16 2°55.397 2.7 10 15.2 101450 78
2004-06-01 07:47:28 51°14.173 2°55.38 2.5 338 15.2 101450 78
2004-06-01 07:47:32 51°14.182 2°55.369 2.8 327 15.2 101450 78
2004-06-01 07:47:38 51°14.195 2°55.351 2.3 42 15.2 101450 78
2004-06-01 07:47:42 51°14.204 2°55.339 2.7 330 15.2 101450 78
2004-06-01 07:47:48 51°14.216 2°55.321 2.4 323 15.2 101450 78
2004-06-01 07:47:52 51°14.225 2°55.309 2.3 330 15.2 101450 78
2004-06-01 07:47:58 51°14.237 2°55.289 2.5 348 15.2 101450 78
2004-06-01 07:48:03 51°14.247 2°55.273 3.2 351 15.2 101450 78
2004-06-01 07:48:08 51°14.256 2°55.257 3.6 344 15.2 101450 78
2004-06-01 07:48:12 51°14.264 2°55.243 3.7 335 15.2 101450 78
2004-06-01 07:48:18 51°14.275 2°55.222 4.3 332 15.2 101450 78
2004-06-01 07:48:23 51°14.285 2°55.204 4.4 353 15.2 101450 78
2004-06-01 07:48:26 51°14.29 2°55.194 4.9 330 15.2 101450 78
2004-06-01 07:48:33 51°14.304 2°55.168 3.8 324 15.2 101450 78
2004-06-01 07:48:37 51°14.311 2°55.154 3.8 348 15.2 101450 78
2004-06-01 07:48:41 51°14.319 2°55.139 2.6 348 15.2 101450 78
2004-06-01 07:48:48 51°14.334 2°55.113 3.7 349 15.2 101450 78
2004-06-01 07:48:52 51°14.342 2°55.098 4 340 15.2 101450 78
2004-06-01 07:48:58 51°14.355 2°55.076 4.1 346 15.2 101450 78
2004-06-01 07:49:02 51°14.364 2°55.062 4.5 349 15.2 101450 78
2004-06-01 07:49:08 51°14.378 2°55.04 4.9 352 15.2 101450 78
2004-06-01 07:49:12 51°14.387 2°55.026 4.6 353 15.2 101440 78
2004-06-01 07:49:18 51°14.401 2°55.004 3.6 348 15.2 101440 78
2004-06-01 07:49:23 51°14.412 2°54.985 3.9 346 15.2 101440 78
2004-06-01 07:49:28 51°14.423 2°54.965 3.7 330 15.2 101440 78
2004-06-01 07:49:32 51°14.431 2°54.948 3.4 339 15.2 101450 78
2004-06-01 07:49:37 51°14.44 2°54.925 3.2 340 15.2 101450 78
2004-06-01 07:49:42 51°14.448 2°54.9 4.6 327 15.2 101450 78
2004-06-01 07:49:48 51°14.457 2°54.869 5.1 340 15.2 101450 78
2004-06-01 07:49:52 51°14.461 2°54.847 5.1 334 15.1 101450 78
2004-06-01 07:49:58 51°14.467 2°54.814 5.6 338 15.1 101450 78
2004-06-01 07:50:03 51°14.471 2°54.786 6.2 321 15.2 101440 78
2004-06-01 07:50:08 51°14.473 2°54.757 8.1 333 15.2 101440 78
2004-06-01 07:50:12 51°14.474 2°54.733 8 336 15.1 101440 78
2004-06-01 07:50:18 51°14.474 2°54.698 8.9 336 15.1 101440 78
2004-06-01 07:50:20 51°14.473 2°54.686 9.4 333 15.1 101440 78
2004-06-01 07:50:28 51°14.469 2°54.639 8.9 334 15.1 101440 78
2004-06-01 07:50:33 51°14.465 2°54.61 8.5 336 15.1 101430 78
2004-06-01 07:50:38 51°14.46 2°54.581 8.5 330 15.1 101430 78
2004-06-01 07:50:42 51°14.455 2°54.559 7.8 337 15.1 101430 78
2004-06-01 07:50:48 51°14.447 2°54.525 9 336 15.1 101430 78
2004-06-01 07:50:52 51°14.441 2°54.503 9.1 334 15.1 101430 78
2004-06-01 07:50:58 51°14.432 2°54.469 8.7 335 15.1 101430 78
2004-06-01 07:51:02 51°14.426 2°54.447 8.8 331 15.1 101430 78
2004-06-01 07:51:06 51°14.419 2°54.425 8.2 332 15.1 101430 78
2004-06-01 07:51:12 51°14.409 2°54.392 8.8 337 15.1 101430 78
2004-06-01 07:51:18 51°14.398 2°54.36 8.1 336 15.1 101430 78
2004-06-01 07:51:22 51°14.391 2°54.339 8.7 346 15.1 101430 78
2004-06-01 07:51:28 51°14.379 2°54.308 8.3 345 15.1 101430 78
2004-06-01 07:51:32 51°14.372 2°54.287 9.9 342 15.1 101430 78
2004-06-01 07:51:38 51°14.36 2°54.255 10.8 340 15.1 101430 78
2004-06-01 07:51:41 51°14.354 2°54.24 10.1 339 15.1 101430 78
2004-06-01 07:51:48 51°14.34 2°54.203 10.1 340 15.1 101430 78
2004-06-01 07:51:52 51°14.332 2°54.182 9.2 340 15.1 101430 78
2004-06-01 07:51:58 51°14.321 2°54.15 9.5 338 15.1 101430 78
2004-06-01 07:52:03 51°14.31 2°54.124 9.9 337 15.1 101430 78
2004-06-01 07:52:08 51°14.301 2°54.097 9.2 338 15.1 101430 78
2004-06-01 07:52:13 51°14.292 2°54.07 9.3 340 15.1 101420 78
2004-06-01 07:52:18 51°14.282 2°54.043 10.2 341 15.1 101420 78
2004-06-01 07:52:23 51°14.273 2°54.016 10.4 333 15 101430 78
2004-06-01 07:52:28 51°14.264 2°53.989 9.6 336 15 101430 78
2004-06-01 07:52:33 51°14.255 2°53.961 10 333 15 101430 78
2004-06-01 07:52:38 51°14.246 2°53.934 9.9 330 15 101430 78
2004-06-01 07:52:43 51°14.237 2°53.907 9.7 330 15.1 101430 78
2004-06-01 07:52:48 51°14.228 2°53.879 8.8 332 15.1 101430 78
2004-06-01 07:52:53 51°14.219 2°53.852 9.1 337 15 101430 78
2004-06-01 07:52:58 51°14.21 2°53.824 10 335 15 101430 78
2004-06-01 07:53:02 51°14.202 2°53.803 9.4 334 15 101430 78
2004-06-01 07:53:08 51°14.191 2°53.769 9 332 15 101430 78
2004-06-01 07:53:12 51°14.184 2°53.748 8.5 336 15 101430 78
2004-06-01 07:53:18 51°14.173 2°53.715 8.8 334 15 101430 78
2004-06-01 07:53:23 51°14.163 2°53.687 9.4 345 15 101420 78
2004-06-01 07:53:28 51°14.154 2°53.66 9.6 346 15 101420 78
2004-06-01 07:53:33 51°14.145 2°53.632 9.4 343 15 101430 78
2004-06-01 07:53:38 51°14.136 2°53.605 9.5 337 15 101430 78
2004-06-01 07:53:42 51°14.129 2°53.583 9.2 347 15 101430 78
2004-06-01 07:53:48 51°14.118 2°53.549 9.2 345 15 101430 78
2004-06-01 07:53:52 51°14.111 2°53.527 9 343 15 101430 79
2004-06-01 07:53:57 51°14.102 2°53.499 8.9 340 15 101430 79
2004-06-01 07:54:02 51°14.092 2°53.472 9.2 337 15 101430 79
2004-06-01 07:54:07 51°14.083 2°53.444 8.9 338 15 101430 79
2004-06-01 07:54:12 51°14.074 2°53.417 8.3 340 15 101430 79
2004-06-01 07:54:16 51°14.067 2°53.395 8.5 341 15 101430 79
2004-06-01 07:54:21 51°14.057 2°53.367 8.8 348 15 101430 79
2004-06-01 07:54:28 51°14.044 2°53.328 8.5 346 15 101430 79
2004-06-01 07:54:33 51°14.035 2°53.301 9 345 15 101430 79
2004-06-01 07:54:37 51°14.028 2°53.279 9.3 342 15 101430 79
2004-06-01 07:54:42 51°14.019 2°53.251 9.2 343 15 101430 79
2004-06-01 07:54:47 51°14.01 2°53.223 9.3 338 15 101430 79
2004-06-01 07:54:52 51°14.001 2°53.195 9.6 343 15 101430 79
2004-06-01 07:54:58 51°13.99 2°53.162 10 340 15 101430 79
2004-06-01 07:55:02 51°13.983 2°53.14 9.3 336 15 101430 79
2004-06-01 07:55:08 51°13.971 2°53.107 9 337 15 101430 79
2004-06-01 07:55:13 51°13.961 2°53.08 9.4 337 15 101430 79
2004-06-01 07:55:16 51°13.954 2°53.065 9.4 342 15 101430 79
2004-06-01 07:55:22 51°13.942 2°53.033 9.3 338 15 101430 79
2004-06-01 07:55:28 51°13.929 2°53.001 9 341 15 101430 79
2004-06-01 07:55:33 51°13.918 2°52.975 9.5 344 15 101430 79
2004-06-01 07:55:36 51°13.912 2°52.959 10.4 340 15 101430 79
2004-06-01 07:55:42 51°13.899 2°52.928 9.6 340 15 101430 79
2004-06-01 07:55:48 51°13.886 2°52.896 9.5 337 15 101430 79
2004-06-01 07:55:52 51°13.878 2°52.875 9.6 335 15 101430 79
2004-06-01 07:55:57 51°13.867 2°52.848 9.4 340 15 101430 79
2004-06-01 07:56:02 51°13.857 2°52.822 9.8 343 15 101430 79
2004-06-01 07:56:08 51°13.844 2°52.79 9.7 343 15 101430 79
2004-06-01 07:56:12 51°13.836 2°52.769 9.5 345 15 101420 79
2004-06-01 07:56:18 51°13.823 2°52.737 10.3   15 101420 79
2004-06-01 07:56:22 51°13.814 2°52.716 9.2 341 15 101430 79
2004-06-01 07:56:28 51°13.802 2°52.684 9 339 15 101430 79
2004-06-01 07:56:32 51°13.793 2°52.663 9.9 341 15 101420 79
2004-06-01 07:56:38 51°13.781 2°52.631 9.4 346 15 101420 79
2004-06-01 07:56:42 51°13.772 2°52.61 10.1 341 15 101420 79
2004-06-01 07:56:48 51°13.76 2°52.578 9.4 338 15 101420 79
2004-06-01 07:56:52 51°13.752 2°52.557 10.2 342 15 101420 79
2004-06-01 07:56:58 51°13.739 2°52.526 10.2 341 15 101420 79
2004-06-01 07:57:03 51°13.728 2°52.499 9.5 341 15 101430 79
2004-06-01 07:57:08 51°13.718 2°52.473 9.2 336 15 101430 79
2004-06-01 07:57:12 51°13.709 2°52.451 8.5 336 15 101430 79
2004-06-01 07:57:18 51°13.697 2°52.419 8.6 339 15 101430 79
2004-06-01 07:57:22 51°13.689 2°52.398 8.5 335 15 101420 79
2004-06-01 07:57:28 51°13.677 2°52.366 9 338 15 101420 79
2004-06-01 07:57:33 51°13.667 2°52.339 8.9 343 15.1 101430 79
2004-06-01 07:57:37 51°13.659 2°52.317 9.5 342 15.1 101430 79
2004-06-01 07:57:42 51°13.649 2°52.29 10.4 338 15.1 101430 79
2004-06-01 07:57:48 51°13.637 2°52.257 10.5 337 15.1 101430 79
2004-06-01 07:57:52 51°13.629 2°52.235 10.2 332 15.1 101430 79
2004-06-01 07:57:58 51°13.617 2°52.203 10 336 15.1 101430 79
2004-06-01 07:58:02 51°13.609 2°52.181 9.9 339 15.1 101430 79
2004-06-01 07:58:08 51°13.597 2°52.149 9.2 338 15.1 101430 79
2004-06-01 07:58:13 51°13.587 2°52.122 10.6 339 15.1 101420 79
2004-06-01 07:58:16 51°13.581 2°52.106 10.5 335 15.1 101420 79
2004-06-01 07:58:22 51°13.569 2°52.073 10 342 15.1 101420 79
2004-06-01 07:58:28 51°13.557 2°52.04 10.3 329 15.1 101420 79
2004-06-01 07:58:33 51°13.547 2°52.013 9.9 329 15.1 101420 79
2004-06-01 07:58:36 51°13.541 2°51.997 9.3 332 15.1 101420 79
2004-06-01 07:58:42 51°13.529 2°51.964 9.4 333 15.1 101420 79
2004-06-01 07:58:47 51°13.519 2°51.937 10.4 332 15.1 101420 79
2004-06-01 07:58:52 51°13.509 2°51.91 9.7 335 15 101420 78
2004-06-01 07:58:57 51°13.499 2°51.883 9.3 333 15 101420 78
2004-06-01 07:59:02 51°13.489 2°51.856 9.9 335 15.1 101430 78
2004-06-01 07:59:08 51°13.477 2°51.823 9.8 335 15.1 101430 78
2004-06-01 07:59:12 51°13.469 2°51.801 9.8 328 15 101420 78
2004-06-01 07:59:18 51°13.458 2°51.768 11.3 331 15 101420 78
2004-06-01 07:59:22 51°13.45 2°51.747 10.3 328 15 101430 78
2004-06-01 07:59:28 51°13.438 2°51.714 9.8 328 15 101430 78
2004-06-01 07:59:33 51°13.428 2°51.687 9.6 332 15.1 101420 78
2004-06-01 07:59:38 51°13.418 2°51.66 8.8 342 15.1 101420 78
2004-06-01 07:59:42 51°13.41 2°51.638 10.6 335 15.1 101420 78
2004-06-01 07:59:48 51°13.398 2°51.605 9.9 336 15.1 101420 78
2004-06-01 07:59:53 51°13.388 2°51.579 9.9 339 15.1 101420 78
2004-06-01 07:59:58 51°13.378 2°51.551 9.7 337 15.1 101420 78
2004-06-01 08:00:02 51°13.371 2°51.53 9.7 336 15.1 101430 78
2004-06-01 08:00:08 51°13.359 2°51.497 9.7 344 15.1 101430 78
2004-06-01 08:00:13 51°13.349 2°51.47 9.8 339 15.1 101420 78
2004-06-01 08:00:18 51°13.339 2°51.443 9.6 344 15.1 101420 78
2004-06-01 08:00:20 51°13.335 2°51.432 9.6 340 15.1 101420 78
2004-06-01 08:00:28 51°13.319 2°51.389 9.2 345 15.1 101420 78
2004-06-01 08:00:32 51°13.311 2°51.367 10 340 15.1 101420 79
2004-06-01 08:00:38 51°13.299 2°51.335 10.2 342 15.1 101420 79
2004-06-01 08:00:42 51°13.292 2°51.313 9.5 341 15.1 101420 79
2004-06-01 08:00:48 51°13.279 2°51.281 9.2 343 15.1 101420 79
2004-06-01 08:00:53 51°13.269 2°51.254 8.7 339 15.1 101430 79
2004-06-01 08:00:58 51°13.26 2°51.227 9 337 15.1 101430 79
2004-06-01 08:01:02 51°13.252 2°51.205 10.1 336 15.1 101420 79
2004-06-01 08:01:08 51°13.24 2°51.173 10.1 337 15.1 101420 79
2004-06-01 08:01:13 51°13.23 2°51.146 9.3 338 15.1 101430 78
2004-06-01 08:01:18 51°13.22 2°51.118 10 333 15.1 101430 78
2004-06-01 08:01:21 51°13.214 2°51.102 9.5 335 15.1 101430 79
2004-06-01 08:01:28 51°13.201 2°51.065 9.2 336 15.1 101430 79
2004-06-01 08:01:32 51°13.193 2°51.043 10.1 338 15.1 101420 78
2004-06-01 08:01:38 51°13.181 2°51.011 9.7 337 15.1 101420 78
2004-06-01 08:01:42 51°13.173 2°50.989 9.9 337 15.1 101420 78
2004-06-01 08:01:48 51°13.161 2°50.957 10 335 15.1 101420 78
2004-06-01 08:01:52 51°13.152 2°50.936 9.8 340 15.1 101420 78
2004-06-01 08:01:58 51°13.141 2°50.903 9.3 341 15.1 101420 78
2004-06-01 08:02:02 51°13.132 2°50.882 9.2 343 15.1 101420 78
2004-06-01 08:02:07 51°13.123 2°50.855 9.6 343 15.1 101420 78
2004-06-01 08:02:12 51°13.113 2°50.828 10.6 346 15.1 101420 78
2004-06-01 08:02:16 51°13.105 2°50.806 9.8 342 15.1 101420 78
2004-06-01 08:02:22 51°13.093 2°50.774 10 342 15.1 101420 78
2004-06-01 08:02:28 51°13.081 2°50.741 10.3 341 15.1 101420 78
2004-06-01 08:02:32 51°13.073 2°50.72 9.4 339 15.2 101420 78
2004-06-01 08:02:37 51°13.064 2°50.693 9.6 342 15.2 101420 78
2004-06-01 08:02:42 51°13.054 2°50.666 10.5 342 15.2 101430 79
2004-06-01 08:02:47 51°13.044 2°50.638 10.4 340 15.2 101430 79
2004-06-01 08:02:52 51°13.034 2°50.612 10 337 15.1 101420 78
2004-06-01 08:02:56 51°13.026 2°50.59 10 334 15.1 101420 78
2004-06-01 08:03:02 51°13.014 2°50.558 9.7 336 15.2 101420 78
2004-06-01 08:03:08 51°13.002 2°50.526 9.7 337 15.2 101420 78
2004-06-01 08:03:13 51°12.991 2°50.5 9.3 338 15.2 101420 78
2004-06-01 08:03:18 51°12.981 2°50.474 9.4   15.2 101420 78
2004-06-01 08:03:23 51°12.969 2°50.448 9.5 336 15.1 101420 78
2004-06-01 08:03:28 51°12.958 2°50.422 9.6 331 15.1 101420 78
2004-06-01 08:03:32 51°12.95 2°50.401 9.4 340 15.1 101420 78
2004-06-01 08:03:38 51°12.937 2°50.37 10.1 341 15.1 101420 78
2004-06-01 08:03:42 51°12.928 2°50.349 9.6 340 15.1 101420 78
2004-06-01 08:03:48 51°12.915 2°50.318 9.6 336 15.1 101420 78
2004-06-01 08:03:52 51°12.906 2°50.297 9.7 341 15.2 101420 78
2004-06-01 08:03:58 51°12.894 2°50.266 10.4 340 15.2 101420 78
2004-06-01 08:04:02 51°12.885 2°50.245 11.2 340 15.2 101420 79
2004-06-01 08:04:08 51°12.872 2°50.214 11.3 335 15.2 101420 79
2004-06-01 08:04:12 51°12.864 2°50.193 11.7 331 15.2 101420 78
2004-06-01 08:04:18 51°12.85 2°50.162 11.4 331 15.2 101420 78
2004-06-01 08:04:23 51°12.839 2°50.136 11.2 334 15.1 101420 79
2004-06-01 08:04:28 51°12.828 2°50.111 10.5 333 15.1 101420 79
2004-06-01 08:04:32 51°12.819 2°50.091 10.3 332 15.2 101410 78
2004-06-01 08:04:38 51°12.805 2°50.06 10.4 332 15.2 101410 78
2004-06-01 08:04:42 51°12.796 2°50.04 10.5 336 15.2 101410 78
2004-06-01 08:04:48 51°12.782 2°50.01 10.3 343 15.2 101410 78
2004-06-01 08:04:52 51°12.772 2°49.99 10.6 344 15.1 101410 78
2004-06-01 08:04:58 51°12.759 2°49.96 12 343 15.1 101410 78
2004-06-01 08:05:02 51°12.749 2°49.94 11.1 346 15.2 101410 78
2004-06-01 08:05:08 51°12.736 2°49.91 11.4 343 15.2 101410 78
2004-06-01 08:05:12 51°12.726 2°49.89 12 340 15.2 101420 78
2004-06-01 08:05:17 51°12.715 2°49.864 11.6 342 15.2 101420 78
2004-06-01 08:05:22 51°12.703 2°49.839 11.5 339 15.2 101420 78
2004-06-01 08:05:28 51°12.69 2°49.809 11.5 337 15.2 101420 78
2004-06-01 08:05:32 51°12.681 2°49.789 10.9 337 15.2 101410 78
2004-06-01 08:05:38 51°12.668 2°49.758 10.6 336 15.2 101410 78
2004-06-01 08:05:42 51°12.66 2°49.736 10.3 337 15.2 101410 78
2004-06-01 08:05:48 51°12.648 2°49.705 11.7 338 15.2 101410 78
2004-06-01 08:05:52 51°12.64 2°49.683 11.7 334 15.2 101410 78
2004-06-01 08:05:58 51°12.628 2°49.651 10.7 336 15.2 101410 78
2004-06-01 08:06:02 51°12.62 2°49.63 11.6 337 15.2 101410 78
2004-06-01 08:06:08 51°12.608 2°49.598 11.7 338 15.2 101410 78
2004-06-01 08:06:12 51°12.6 2°49.576 11.4 336 15.2 101410 78
2004-06-01 08:06:18 51°12.588 2°49.544 11.6 338 15.2 101410 78
2004-06-01 08:06:22 51°12.58 2°49.523 11.6 337 15.2 101410 78
2004-06-01 08:06:28 51°12.568 2°49.491 12 336 15.2 101410 78
2004-06-01 08:06:32 51°12.56 2°49.47 11.3 337 15.2 101400 78
2004-06-01 08:06:38 51°12.549 2°49.438 10.5 336 15.2 101400 78
2004-06-01 08:06:42 51°12.541 2°49.417 10.3 335 15.2 101410 78
2004-06-01 08:06:47 51°12.531 2°49.39 10.6 333 15.2 101410 78
2004-06-01 08:06:52 51°12.521 2°49.364 10.7 331 15.2 101410 77
2004-06-01 08:06:56 51°12.513 2°49.343 10.7 338 15.2 101410 77
2004-06-01 08:07:02 51°12.501 2°49.31 9.8 339 15.2 101410 77
2004-06-01 08:07:08 51°12.489 2°49.279 10 335 15.2 101410 77
2004-06-01 08:07:12 51°12.481 2°49.258 9.6 338 15.2 101410 77
2004-06-01 08:07:18 51°12.469 2°49.226 10.4 341 15.2 101410 77
2004-06-01 08:07:21 51°12.463 2°49.21 10.3 341 15.2 101410 78
2004-06-01 08:07:28 51°12.449 2°49.173 9.7 339 15.2 101410 78
2004-06-01 08:07:32 51°12.441 2°49.151 9.9 345 15.2 101410 78
2004-06-01 08:07:38 51°12.429 2°49.12 10.3 342 15.2 101410 78
2004-06-01 08:07:42 51°12.421 2°49.098 10.5 342 15.2 101420 78
2004-06-01 08:07:48 51°12.41 2°49.067 10.8 339 15.2 101420 78
2004-06-01 08:07:52 51°12.402 2°49.045 10.3 340 15.2 101410 78
2004-06-01 08:07:58 51°12.39 2°49.014 10.7 340 15.2 101410 78
2004-06-01 08:08:02 51°12.382 2°48.993 11.1 338 15.2 101410 78
2004-06-01 08:08:08 51°12.37 2°48.961 11.3 339 15.2 101410 78
2004-06-01 08:08:12 51°12.362 2°48.94 11 339 15.2 101420 78
2004-06-01 08:08:18 51°12.35 2°48.909 10.2   15.2 101420 78
2004-06-01 08:08:22 51°12.342 2°48.887 11.2 330 15.2 101410 78
2004-06-01 08:08:28 51°12.33 2°48.856 11.2 331 15.2 101410 78
2004-06-01 08:08:32 51°12.322 2°48.835 10.2 337 15.2 101410 77
2004-06-01 08:08:38 51°12.31 2°48.803 9.9 338 15.2 101410 77
2004-06-01 08:08:40 51°12.307 2°48.792 9.8 339 15.2 101410 77
2004-06-01 08:08:48 51°12.291 2°48.75 9.9 335 15.2 101410 77
2004-06-01 08:08:52 51°12.283 2°48.729 9.9 336 15.2 101410 77
2004-06-01 08:08:58 51°12.271 2°48.697 10.1 333 15.2 101410 77
2004-06-01 08:09:02 51°12.264 2°48.676 9.9 341 15.2 101410 77
2004-06-01 08:09:08 51°12.252 2°48.645 9.5 342 15.2 101410 77
2004-06-01 08:09:13 51°12.242 2°48.619 9.7 340 15.2 101410 77
2004-06-01 08:09:18 51°12.232 2°48.592 11.3 339 15.2 101410 77
2004-06-01 08:09:22 51°12.224 2°48.571 11.2 340 15.3 101410 78
2004-06-01 08:09:28 51°12.212 2°48.54 12.4 335 15.3 101410 78
2004-06-01 08:09:32 51°12.204 2°48.519 11.4 332 15.3 101420 78
2004-06-01 08:09:38 51°12.192 2°48.487 10.9 334 15.3 101420 78
2004-06-01 08:09:41 51°12.186 2°48.472 10.8 330 15.3 101410 78
2004-06-01 08:09:48 51°12.173 2°48.435 10.6 331 15.3 101410 78
2004-06-01 08:09:52 51°12.165 2°48.414 10 332 15.3 101410 77
2004-06-01 08:09:58 51°12.153 2°48.382 9.3 333 15.3 101410 77
2004-06-01 08:10:02 51°12.145 2°48.361 9.6 332 15.3 101400 77
2004-06-01 08:10:08 51°12.133 2°48.33 9.3 331 15.3 101400 77
2004-06-01 08:10:13 51°12.124 2°48.303 9.3 332 15.3 101400 77
2004-06-01 08:10:18 51°12.114 2°48.277 9 340 15.3 101400 77
2004-06-01 08:10:23 51°12.104 2°48.251 9.4 343 15.2 101410 77
2004-06-01 08:10:28 51°12.094 2°48.225 9.4 341 15.2 101410 77
2004-06-01 08:10:33 51°12.084 2°48.198 8.7 344 15.2 101410 77
2004-06-01 08:10:38 51°12.075 2°48.172 8.9 346 15.2 101410 77
2004-06-01 08:10:42 51°12.067 2°48.151 11.7 341 15.3 101420 77
2004-06-01 08:10:48 51°12.055 2°48.119 11.3 340 15.3 101420 77
2004-06-01 08:10:52 51°12.047 2°48.099 10.7 339 15.3 101420 77
2004-06-01 08:10:58 51°12.036 2°48.067 10.6 341 15.3 101420 77
2004-06-01 08:11:02 51°12.027 2°48.047 10.3 339 15.3 101420 77
2004-06-01 08:11:08 51°12.016 2°48.015 10.2 336 15.3 101420 77
2004-06-01 08:11:12 51°12.008 2°47.994 9.7 343 15.3 101410 77
2004-06-01 08:11:17 51°11.998 2°47.968 11.3 341 15.3 101410 77
2004-06-01 08:11:22 51°11.988 2°47.942 10.2 332 15.3 101410 77
2004-06-01 08:11:28 51°11.976 2°47.911 10.4 328 15.3 101410 77
2004-06-01 08:11:32 51°11.968 2°47.89 10.3 332 15.3 101410 77
2004-06-01 08:11:37 51°11.959 2°47.864 9.5 326 15.3 101410 77
2004-06-01 08:11:42 51°11.949 2°47.837 9.6 333 15.3 101410 77
2004-06-01 08:11:48 51°11.938 2°47.806 9.8 343 15.3 101410 77
2004-06-01 08:11:53 51°11.929 2°47.779 10.6 340 15.3 101410 77
2004-06-01 08:11:58 51°11.919 2°47.753 10.6 344 15.3 101410 77
2004-06-01 08:12:02 51°11.913 2°47.731 11.8 337 15.3 101410 77
2004-06-01 08:12:08 51°11.902 2°47.699 11.1 338 15.3 101410 77
2004-06-01 08:12:12 51°11.895 2°47.677 11.1 335 15.3 101410 77
2004-06-01 08:12:18 51°11.885 2°47.644 10.7 337 15.3 101410 77
2004-06-01 08:12:22 51°11.878 2°47.623 10.8 335 15.3 101410 77
2004-06-01 08:12:28 51°11.867 2°47.59 10.2 333 15.3 101410 77
2004-06-01 08:12:33 51°11.858 2°47.564 9.8 333 15.3 101400 77
2004-06-01 08:12:38 51°11.85 2°47.537 10.3 332 15.3 101400 77
2004-06-01 08:12:42 51°11.842 2°47.516 9.8 333 15.3 101400 77
2004-06-01 08:12:48 51°11.832 2°47.483 9.3 329 15.3 101400 77
2004-06-01 08:12:53 51°11.823 2°47.457 9.1 332 15.3 101400 77
2004-06-01 08:12:58 51°11.814 2°47.43 8.6 327 15.3 101400 77
2004-06-01 08:13:02 51°11.807 2°47.408 8.9 331 15.3 101400 77
2004-06-01 08:13:08 51°11.796 2°47.376 9.1 329 15.3 101400 77
2004-06-01 08:13:13 51°11.787 2°47.349 8.3 332 15.3 101410 77
2004-06-01 08:13:18 51°11.778 2°47.322 8.9 338 15.3 101410 77
2004-06-01 08:13:22 51°11.771 2°47.301 8.4 330 15.3 101400 77
2004-06-01 08:13:28 51°11.76 2°47.269 9 328 15.3 101400 77
2004-06-01 08:13:33 51°11.752 2°47.242 9.3 331 15.3 101410 76
2004-06-01 08:13:38 51°11.743 2°47.215 8.8 330 15.3 101410 76
2004-06-01 08:13:42 51°11.736 2°47.193 9.7 335 15.3 101410 77
2004-06-01 08:13:48 51°11.725 2°47.161 9.4 334 15.3 101410 77
2004-06-01 08:13:53 51°11.716 2°47.134 9.6 334 15.3 101410 77
2004-06-01 08:13:58 51°11.707 2°47.108 10 337 15.3 101410 77
2004-06-01 08:14:02 51°11.7 2°47.086 9.2 337 15.3 101410 77
2004-06-01 08:14:08 51°11.689 2°47.054 10.1 338 15.3 101410 77
2004-06-01 08:14:13 51°11.68 2°47.028 11.8 334 15.3 101400 77
2004-06-01 08:14:18 51°11.671 2°47.001 11.2 331 15.3 101400 77
2004-06-01 08:14:23 51°11.663 2°46.974 10.4 332 15.3 101410 77
2004-06-01 08:14:28 51°11.654 2°46.948 11 331 15.3 101410 77
2004-06-01 08:14:33 51°11.645 2°46.921 11.1 334 15.3 101400 77
2004-06-01 08:14:38 51°11.636 2°46.895 10.7 331 15.3 101400 77
2004-06-01 08:14:42 51°11.629 2°46.873 10.5 327 15.3 101390 77
2004-06-01 08:14:48 51°11.619 2°46.841 10.4 327 15.3 101390 77
2004-06-01 08:14:52 51°11.612 2°46.82 10.3 328 15.3 101390 77
2004-06-01 08:14:58 51°11.601 2°46.788 10.4 331 15.3 101390 77
2004-06-01 08:15:02 51°11.594 2°46.766 10.5 329 15.3 101390 77
2004-06-01 08:15:08 51°11.583 2°46.734 10.7 332 15.3 101390 77
2004-06-01 08:15:13 51°11.575 2°46.707 9.9 327 15.3 101400 77
2004-06-01 08:15:18 51°11.566 2°46.681 10.2 328 15.3 101400 77
2004-06-01 08:15:22 51°11.559 2°46.659 9.6 330 15.3 101400 77
2004-06-01 08:15:28 51°11.549 2°46.627 9.7 329 15.3 101400 77
2004-06-01 08:15:32 51°11.542 2°46.605 9.9 327 15.3 101390 77
2004-06-01 08:15:38 51°11.533 2°46.573 9.4 329 15.3 101390 77
2004-06-01 08:15:42 51°11.526 2°46.551 9.9 334 15.3 101390 76
2004-06-01 08:15:48 51°11.517 2°46.518 10.2 329 15.3 101390 76
2004-06-01 08:15:52 51°11.511 2°46.496 9.3 328 15.3 101400 76
2004-06-01 08:15:57 51°11.502 2°46.469 9.4 330 15.3 101400 76
2004-06-01 08:16:02 51°11.494 2°46.442 10.8 331 15.3 101400 76
2004-06-01 08:16:08 51°11.484 2°46.409 11 335 15.3 101400 76
2004-06-01 08:16:12 51°11.478 2°46.388 10.3 328 15.3 101390 76
2004-06-01 08:16:17 51°11.47 2°46.36 11.7 327 15.3 101390 76
2004-06-01 08:16:22 51°11.462 2°46.333 11 326 15.3 101400 77
2004-06-01 08:16:28 51°11.453 2°46.299 11.1 324 15.3 101400 77
2004-06-01 08:16:33 51°11.446 2°46.272 11.7 325 15.3 101390 77
2004-06-01 08:16:38 51°11.439 2°46.244 10.1 327 15.3 101390 77
2004-06-01 08:16:42 51°11.433 2°46.222 10.3 320 15.3 101390 77
2004-06-01 08:16:48 51°11.424 2°46.188 10.1 318 15.3 101390 77
2004-06-01 08:16:52 51°11.418 2°46.166 10 316 15.3 101380 76
2004-06-01 08:16:58 51°11.41 2°46.133 10.6 317 15.3 101380 76
2004-06-01 08:17:02 51°11.404 2°46.11 9.8 319 15.3 101380 76
2004-06-01 08:17:08 51°11.395 2°46.077 9.7 327 15.3 101380 76
2004-06-01 08:17:13 51°11.388 2°46.049 9.7 327 15.3 101380 76
2004-06-01 08:17:18 51°11.381 2°46.022 9.5 330 15.3 101380 76
2004-06-01 08:17:22 51°11.375 2°45.999 10.1 324 15.3 101380 76
2004-06-01 08:17:28 51°11.367 2°45.966 10.4 328 15.3 101380 76
2004-06-01 08:17:32 51°11.361 2°45.944 9.7 321 15.3 101390 76
2004-06-01 08:17:38 51°11.352 2°45.91 10.5 321 15.3 101390 76
2004-06-01 08:17:40 51°11.35 2°45.899 9 320 15.3 101380 76
2004-06-01 08:17:48 51°11.338 2°45.855 9.4 328 15.3 101380 76
2004-06-01 08:17:52 51°11.332 2°45.833 10.4 324 15.3 101380 76
2004-06-01 08:17:58 51°11.322 2°45.8 10.1 322 15.3 101380 76
2004-06-01 08:18:02 51°11.315 2°45.779 9.9 321 15.3 101380 76
2004-06-01 08:18:08 51°11.305 2°45.747 10.5 322 15.3 101380 76
2004-06-01 08:18:13 51°11.295 2°45.721 9.6 323 15.3 101380 76
2004-06-01 08:18:18 51°11.286 2°45.696 9.6 332 15.3 101380 76
2004-06-01 08:18:22 51°11.278 2°45.675 9.8 333 15.3 101380 76
2004-06-01 08:18:28 51°11.267 2°45.644 9.5 340 15.3 101380 76
2004-06-01 08:18:32 51°11.259 2°45.624 10.8 335 15.3 101380 76
2004-06-01 08:18:38 51°11.248 2°45.593 11.1 334 15.3 101380 76
2004-06-01 08:18:43 51°11.238 2°45.567 11.2 334 15.3 101380 76
2004-06-01 08:18:48 51°11.229 2°45.541 10.3 330 15.3 101380 76
2004-06-01 08:18:53 51°11.219 2°45.516 10.1 332 15.4 101380 77
2004-06-01 08:18:58 51°11.21 2°45.49 11.3 330 15.4 101380 77
2004-06-01 08:19:02 51°11.202 2°45.47 10.2 332 15.4 101380 77
2004-06-01 08:19:08 51°11.191 2°45.439 10.8 328 15.4 101380 77
2004-06-01 08:19:12 51°11.184 2°45.418 11.2 329 15.4 101380 77
2004-06-01 08:19:18 51°11.172 2°45.387 10.8 325 15.4 101380 77
2004-06-01 08:19:22 51°11.165 2°45.367 11.1 326 15.4 101380 77
2004-06-01 08:19:28 51°11.154 2°45.336 11.2 325 15.4 101380 77
2004-06-01 08:19:32 51°11.146 2°45.315 11.5 321 15.4 101370 77
2004-06-01 08:19:38 51°11.135 2°45.284 11.4 318 15.4 101370 77
2004-06-01 08:19:42 51°11.128 2°45.264 10.9 323 15.4 101370 77
2004-06-01 08:19:48 51°11.116 2°45.233 11.3 328 15.4 101370 77
2004-06-01 08:19:52 51°11.109 2°45.212 10.2 329 15.4 101370 77
2004-06-01 08:19:58 51°11.098 2°45.181 11.6 322 15.4 101370 77
2004-06-01 08:20:02 51°11.092 2°45.159 10.7 325 15.3 101370 77
2004-06-01 08:20:08 51°11.081 2°45.128 11.4 322 15.3 101370 77
2004-06-01 08:20:13 51°11.073 2°45.102 11.8 324 15.4 101370 77
2004-06-01 08:20:18 51°11.065 2°45.075 10.8 325 15.4 101370 77
2004-06-01 08:20:20 51°11.062 2°45.064 10.1 321 15.3 101370 77
2004-06-01 08:20:28 51°11.05 2°45.021 10 324 15.3 101370 77
2004-06-01 08:20:33 51°11.043 2°44.994 10.7 321 15.3 101370 77
2004-06-01 08:20:38 51°11.036 2°44.967 10.1 319 15.3 101370 77
2004-06-01 08:20:43 51°11.029 2°44.94 10 321 15.3 101370 77
2004-06-01 08:20:48 51°11.022 2°44.913 9.2 324 15.3 101370 77
2004-06-01 08:20:53 51°11.014 2°44.885 9.6 324 15.3 101370 76
2004-06-01 08:20:58 51°11.007 2°44.858 9.3 318 15.3 101370 76
2004-06-01 08:21:02 51°11.001 2°44.837 9 323 15.3 101370 76
2004-06-01 08:21:08 51°10.993 2°44.804 9.7 322 15.3 101370 76
2004-06-01 08:21:13 51°10.986 2°44.776 9.4 324 15.3 101370 76
2004-06-01 08:21:18 51°10.979 2°44.749 8.8 322 15.3 101370 76
2004-06-01 08:21:21 51°10.975 2°44.732 9.4 320 15.3 101370 76
2004-06-01 08:21:28 51°10.966 2°44.693 8.6 323 15.3 101370 76
2004-06-01 08:21:32 51°10.961 2°44.67 7.7 315 15.3 101370 76
2004-06-01 08:21:38 51°10.954 2°44.637 9.2 319 15.3 101370 76
2004-06-01 08:21:42 51°10.948 2°44.615 9.6 319 15.3 101380 77
2004-06-01 08:21:48 51°10.941 2°44.581 8.8 322 15.3 101380 77
2004-06-01 08:21:53 51°10.934 2°44.553 9.8 325 15.3 101370 77
2004-06-01 08:21:58 51°10.928 2°44.526 9.9 327 15.3 101370 77
2004-06-01 08:22:02 51°10.922 2°44.503 11 319 15.3 101380 77
2004-06-01 08:22:08 51°10.915 2°44.47 10.1 317 15.3 101380 77
2004-06-01 08:22:13 51°10.908 2°44.442 9.9 318 15.3 101380 77
2004-06-01 08:22:18 51°10.902 2°44.414 10.7 317 15.3 101380 77
2004-06-01 08:22:22 51°10.897 2°44.392 10 317 15.3 101370 77
2004-06-01 08:22:28 51°10.89 2°44.358 10.9 319 15.3 101370 77
2004-06-01 08:22:32 51°10.884 2°44.336 10.1 317 15.3 101370 77
2004-06-01 08:22:37 51°10.878 2°44.308 10 227 15.3 101370 77
2004-06-01 08:22:42 51°10.872 2°44.281 9 323 15.3 101370 77
2004-06-01 08:22:48 51°10.864 2°44.247 10.5 321 15.3 101370 77
2004-06-01 08:22:52 51°10.859 2°44.225 9.2 320 15.3 101370 77
2004-06-01 08:22:58 51°10.851 2°44.192 10.1 321 15.3 101370 77
2004-06-01 08:23:02 51°10.846 2°44.17 10.3 318 15.3 101370 76
2004-06-01 08:23:08 51°10.839 2°44.137 9.2 317 15.3 101370 76
2004-06-01 08:23:12 51°10.834 2°44.114 9.2 317 15.3 101370 77
2004-06-01 08:23:18 51°10.826 2°44.081 9.7   15.3 101370 77
2004-06-01 08:23:22 51°10.821 2°44.059 9.4 43 15.3 101370 77
2004-06-01 08:23:28 51°10.813 2°44.025 9.5 321 15.3 101370 77
2004-06-01 08:23:32 51°10.808 2°44.003 9.3 316 15.3 101370 77
2004-06-01 08:23:38 51°10.801 2°43.97 8.9 324 15.3 101370 77
2004-06-01 08:23:42 51°10.796 2°43.948 9.7 321 15.3 101380 77
2004-06-01 08:23:48 51°10.788 2°43.914 9.3 317 15.3 101380 77
2004-06-01 08:23:52 51°10.783 2°43.892 10 315 15.3 101370 77
2004-06-01 08:23:58 51°10.776 2°43.859 9.1 40 15.3 101370 77
2004-06-01 08:24:02 51°10.77 2°43.837 8.7 228 15.4 101370 77
2004-06-01 08:24:08 51°10.763 2°43.804 10.2 317 15.4 101370 77
2004-06-01 08:24:13 51°10.757 2°43.776 10.6 42 15.3 101370 77
2004-06-01 08:24:17 51°10.752 2°43.754 8.9 42 15.3 101370 77
2004-06-01 08:24:22 51°10.745 2°43.726 9 317 15.3 101370 77
2004-06-01 08:24:28 51°10.737 2°43.693 9.1 317 15.3 101370 77
2004-06-01 08:24:32 51°10.732 2°43.671 9.8 322 15.3 101370 77
2004-06-01 08:24:38 51°10.725 2°43.638 9.9 323 15.3 101370 77
2004-06-01 08:24:42 51°10.719 2°43.616 9 324 15.3 101370 76
2004-06-01 08:24:48 51°10.712 2°43.583 11.1 318 15.3 101370 76
2004-06-01 08:24:52 51°10.707 2°43.561 10 323 15.3 101370 76
2004-06-01 08:24:58 51°10.699 2°43.528 10.3 319 15.3 101370 76
2004-06-01 08:25:02 51°10.694 2°43.506 11.9 314 15.3 101370 76
2004-06-01 08:25:08 51°10.686 2°43.473 11.2 229 15.3 101370 76
2004-06-01 08:25:12 51°10.682 2°43.451 11 311 15.3 101370 77
2004-06-01 08:25:18 51°10.674 2°43.419 9.7 230 15.3 101370 77
2004-06-01 08:25:21 51°10.67 2°43.402 8.9 308 15.3 101360 77
2004-06-01 08:25:28 51°10.661 2°43.364 10.1 307 15.3 101360 77
2004-06-01 08:25:32 51°10.656 2°43.341 10.1 229 15.3 101360 76
2004-06-01 08:25:38 51°10.648 2°43.308 9.9 315 15.3 101360 76
2004-06-01 08:25:42 51°10.643 2°43.286 10 42 15.3 101370 76
2004-06-01 08:25:48 51°10.636 2°43.253 10.2 313 15.3 101370 76
2004-06-01 08:25:52 51°10.63 2°43.231 9.9 315 15.3 101370 75
2004-06-01 08:25:58 51°10.623 2°43.198 8.9 320 15.3 101370 75
2004-06-01 08:26:02 51°10.618 2°43.176 8.9 322 15.3 101360 75
2004-06-01 08:26:08 51°10.61 2°43.143 9.6 324 15.3 101360 75
2004-06-01 08:26:12 51°10.605 2°43.121 10.3 320 15.3 101370 75
2004-06-01 08:26:18 51°10.598 2°43.088 9.8 319 15.3 101370 75
2004-06-01 08:26:22 51°10.593 2°43.067 9.8 330 15.3 101370 76
2004-06-01 08:26:28 51°10.585 2°43.034 10.3 323 15.3 101370 76
2004-06-01 08:26:32 51°10.58 2°43.012 9.8 325 15.3 101370 76
2004-06-01 08:26:38 51°10.572 2°42.979 10.9 324 15.3 101370 76
2004-06-01 08:26:42 51°10.567 2°42.957 11 325 15.3 101370 76
2004-06-01 08:26:47 51°10.561 2°42.93 10.1 323 15.3 101370 76
2004-06-01 08:26:52 51°10.555 2°42.902 10.5 322 15.3 101370 77
2004-06-01 08:26:56 51°10.55 2°42.88 10 321 15.3 101370 77
2004-06-01 08:27:02 51°10.542 2°42.848 11.3 323 15.4 101370 77
2004-06-01 08:27:08 51°10.535 2°42.815 10.6 322 15.4 101370 77
2004-06-01 08:27:13 51°10.528 2°42.788 10.4 323 15.3 101360 77
2004-06-01 08:27:18 51°10.523 2°42.76 11.9 321 15.3 101360 77
2004-06-01 08:27:22 51°10.517 2°42.739 11 317 15.4 101370 77
2004-06-01 08:27:28 51°10.51 2°42.706 12 318 15.4 101370 77
2004-06-01 08:27:32 51°10.505 2°42.684 10.6 319 15.3 101360 77
2004-06-01 08:27:38 51°10.497 2°42.651 10.5 323 15.3 101360 77
2004-06-01 08:27:42 51°10.492 2°42.63 10.1 323 15.3 101360 77
2004-06-01 08:27:48 51°10.485 2°42.597 11 324 15.3 101360 77
2004-06-01 08:27:52 51°10.479 2°42.576 10.8 320 15.3 101360 77
2004-06-01 08:27:58 51°10.472 2°42.543 10.9 320 15.3 101360 77
2004-06-01 08:28:02 51°10.467 2°42.521 12.1 319 15.3 101360 77
2004-06-01 08:28:07 51°10.461 2°42.494 11.8 318 15.3 101360 77
2004-06-01 08:28:12 51°10.455 2°42.466 10.6 320 15.3 101360 77
2004-06-01 08:28:16 51°10.45 2°42.445 11.6 319 15.3 101360 77
2004-06-01 08:28:22 51°10.442 2°42.412 10.9 320 15.3 101360 77
2004-06-01 08:28:28 51°10.435 2°42.379 10.3 317 15.3 101360 77
2004-06-01 08:28:33 51°10.429 2°42.352 11.4 318 15.3 101360 76
2004-06-01 08:28:38 51°10.422 2°42.325 10 317 15.3 101360 76
2004-06-01 08:28:42 51°10.417 2°42.303 11.4 42 15.3 101360 76
2004-06-01 08:28:48 51°10.41 2°42.27 11 37 15.3 101360 76
2004-06-01 08:28:52 51°10.404 2°42.249 11.4 42 15.3 101360 76
2004-06-01 08:28:58 51°10.397 2°42.216 11.2 315 15.3 101360 76
2004-06-01 08:29:03 51°10.391 2°42.189 11.1 315 15.2 101370 76
2004-06-01 08:29:08 51°10.384 2°42.161 10.3 227 15.2 101370 76
2004-06-01 08:29:12 51°10.379 2°42.14 11 313 15.2 101370 76
2004-06-01 08:29:18 51°10.372 2°42.107 11.3 315 15.2 101370 76
2004-06-01 08:29:21 51°10.368 2°42.09 10.3 228 15.2 101360 76
2004-06-01 08:29:28 51°10.36 2°42.052 9.6 315 15.2 101360 76
2004-06-01 08:29:32 51°10.355 2°42.031 9.6 317 15.2 101360 76
2004-06-01 08:29:38 51°10.347 2°41.998 10.1 227 15.2 101360 76
2004-06-01 08:29:42 51°10.342 2°41.977 9.4 43 15.2 101370 76
2004-06-01 08:29:48 51°10.335 2°41.944 8.8 228 15.2 101370 76
2004-06-01 08:29:52 51°10.33 2°41.923 8.3 326 15.2 101360 76
2004-06-01 08:29:58 51°10.322 2°41.89 8.4 327 15.2 101360 76
2004-06-01 08:30:03 51°10.316 2°41.863 10.1 330 15.2 101370 76
2004-06-01 08:30:08 51°10.31 2°41.836 8.8 330 15.2 101370 76
2004-06-01 08:30:13 51°10.304 2°41.809 9.1 324 15.3 101370 76
2004-06-01 08:30:18 51°10.297 2°41.782 7.8 323 15.3 101370 76
2004-06-01 08:30:22 51°10.293 2°41.76 8.8 322 15.3 101370 77
2004-06-01 08:30:28 51°10.285 2°41.728 10.2 329 15.3 101370 77
2004-06-01 08:30:32 51°10.28 2°41.706 11.3 324 15.3 101370 77
2004-06-01 08:30:38 51°10.272 2°41.674 9.9 326 15.3 101370 77
2004-06-01 08:30:42 51°10.267 2°41.652 10.3 326 15.3 101370 77
2004-06-01 08:30:48 51°10.26 2°41.619 9.9 325 15.3 101370 77
2004-06-01 08:30:52 51°10.255 2°41.598 10.2 324 15.3 101370 77
2004-06-01 08:30:58 51°10.248 2°41.566 10.5 320 15.3 101370 77
2004-06-01 08:31:02 51°10.243 2°41.544 10.2 318 15.3 101370 77
2004-06-01 08:31:07 51°10.237 2°41.517 9.6 324 15.3 101370 77
2004-06-01 08:31:12 51°10.231 2°41.49 11.1 321 15.3 101370 77
2004-06-01 08:31:16 51°10.226 2°41.468 10.1 320 15.3 101370 77
2004-06-01 08:31:22 51°10.218 2°41.436 11.3 322 15.3 101370 77
2004-06-01 08:31:28 51°10.211 2°41.404 12.2 323 15.3 101370 77
2004-06-01 08:31:33 51°10.205 2°41.377 10.1 318 15.3 101370 77
2004-06-01 08:31:38 51°10.199 2°41.35 10.4 323 15.3 101370 77
2004-06-01 08:31:42 51°10.194 2°41.328 10.9 319 15.3 101370 76
2004-06-01 08:31:48 51°10.187 2°41.296 10.9 317 15.3 101370 76
2004-06-01 08:31:53 51°10.181 2°41.268 10.1 316 15.2 101370 76
2004-06-01 08:31:58 51°10.175 2°41.242 9.5 318 15.2 101370 76
2004-06-01 08:32:02 51°10.17 2°41.22 11.1 319 15.2 101370 76
2004-06-01 08:32:08 51°10.163 2°41.188 10.6 40 15.2 101370 76
2004-06-01 08:32:12 51°10.158 2°41.166 10 226 15.3 101370 76
2004-06-01 08:32:18 51°10.151 2°41.134 10 42 15.3 101370 76
2004-06-01 08:32:23 51°10.144 2°41.107 9.8 317 15.2 101370 77
2004-06-01 08:32:28 51°10.138 2°41.081 10.3 318 15.2 101370 77
2004-06-01 08:32:32 51°10.133 2°41.059 9.9 43 15.3 101370 77
2004-06-01 08:32:38 51°10.126 2°41.027 10.3 321 15.3 101370 77
2004-06-01 08:32:42 51°10.121 2°41.005 9.4 42 15.3 101370 77
2004-06-01 08:32:48 51°10.114 2°40.973 9.3 317 15.3 101370 77
2004-06-01 08:32:52 51°10.109 2°40.951 9.1 326 15.3 101370 77
2004-06-01 08:32:58 51°10.102 2°40.919 10 325 15.3 101370 77
2004-06-01 08:33:02 51°10.097 2°40.897 11.2 318 15.3 101370 77
2004-06-01 08:33:08 51°10.09 2°40.865 10.6 323 15.3 101370 77
2004-06-01 08:33:12 51°10.085 2°40.844 11.2 319 15.3 101370 77
2004-06-01 08:33:18 51°10.077 2°40.812 10.9 317 15.3 101370 77
2004-06-01 08:33:21 51°10.073 2°40.796 12 316 15.3 101370 77
2004-06-01 08:33:28 51°10.065 2°40.758 12.3 313 15.3 101370 77
2004-06-01 08:33:32 51°10.06 2°40.737 11.1 314 15.3 101370 77
2004-06-01 08:33:38 51°10.053 2°40.704 11.4 316 15.3 101370 77
2004-06-01 08:33:42 51°10.049 2°40.683 10.8 315 15.3 101360 77
2004-06-01 08:33:48 51°10.041 2°40.651 10.8 43 15.3 101360 77
2004-06-01 08:33:52 51°10.036 2°40.629 10.7 43 15.2 101360 77
2004-06-01 08:33:58 51°10.029 2°40.597 11.5 40 15.2 101360 77
2004-06-01 08:34:03 51°10.023 2°40.57 10.8 229 15.2 101370 77
2004-06-01 08:34:08 51°10.017 2°40.543 10.7 315 15.2 101370 77
2004-06-01 08:34:13 51°10.011 2°40.517 10.9 315 15.2 101360 77
2004-06-01 08:34:18 51°10.005 2°40.489 10.1   15.2 101360 77
2004-06-01 08:34:21 51°10.002 2°40.473 9.7 309 15.2 101370 77
2004-06-01 08:34:28 51°9.993 2°40.436 10.6 313 15.2 101370 77
2004-06-01 08:34:33 51°9.987 2°40.409 10.7 313 15.2 101370 77
2004-06-01 08:34:38 51°9.981 2°40.382 10 310 15.2 101370 77
2004-06-01 08:34:43 51°9.975 2°40.355 10.2 306 15.2 101370 77
2004-06-01 08:34:48 51°9.969 2°40.328 10.2 231 15.2 101370 77
2004-06-01 08:34:53 51°9.963 2°40.301 9.1 315 15.2 101370 77
2004-06-01 08:34:58 51°9.957 2°40.274 9.2 309 15.2 101370 77
2004-06-01 08:35:03 51°9.951 2°40.247 9 41 15.2 101370 77
2004-06-01 08:35:08 51°9.945 2°40.22 9.8 311 15.2 101370 77
2004-06-01 08:35:12 51°9.939 2°40.199 9.2 229 15.2 101370 77
2004-06-01 08:35:18 51°9.932 2°40.167 10.2 310 15.2 101370 77
2004-06-01 08:35:22 51°9.927 2°40.145 9.8 227 15.2 101360 77
2004-06-01 08:35:28 51°9.92 2°40.113 10 311 15.2 101360 77
2004-06-01 08:35:32 51°9.915 2°40.091 8.9 309 15.2 101370 78
2004-06-01 08:35:38 51°9.908 2°40.058 10 313 15.2 101370 78
2004-06-01 08:35:42 51°9.903 2°40.037 9.5 311 15.2 101370 77
2004-06-01 08:35:48 51°9.896 2°40.004 9.8 302 15.2 101370 77
2004-06-01 08:35:52 51°9.891 2°39.982 9.4 308 15.2 101370 77
2004-06-01 08:35:58 51°9.883 2°39.95 9 309 15.2 101370 77
2004-06-01 08:36:03 51°9.878 2°39.922 9.5 306 15.2 101370 77
2004-06-01 08:36:08 51°9.871 2°39.896 9.1 312 15.2 101370 77
2004-06-01 08:36:12 51°9.867 2°39.874 9.1 312 15.2 101370 78
2004-06-01 08:36:18 51°9.859 2°39.841 9.1 315 15.2 101370 78
2004-06-01 08:36:22 51°9.855 2°39.819 9.1 315 15.2 101370 78
2004-06-01 08:36:27 51°9.849 2°39.792 8.3 228 15.2 101370 78
2004-06-01 08:36:32 51°9.843 2°39.765 9.5 317 15.2 101370 78
2004-06-01 08:36:36 51°9.838 2°39.744 9.2 317 15.2 101370 78
2004-06-01 08:36:42 51°9.83 2°39.711 10.3 327 15.3 101370 78
2004-06-01 08:36:48 51°9.823 2°39.679 9.9 328 15.3 101370 78
2004-06-01 08:36:52 51°9.818 2°39.657 9.5 323 15.3 101370 78
2004-06-01 08:36:58 51°9.811 2°39.624 9.6 323 15.3 101370 78
2004-06-01 08:37:02 51°9.806 2°39.603 9 324 15.3 101370 78
2004-06-01 08:37:08 51°9.799 2°39.57 9.3 317 15.3 101370 78
2004-06-01 08:37:12 51°9.794 2°39.549 9.7 321 15.3 101370 78
2004-06-01 08:37:18 51°9.787 2°39.516 9.5 323 15.3 101370 78
2004-06-01 08:37:22 51°9.782 2°39.495 9.5 315 15.2 101370 78
2004-06-01 08:37:28 51°9.775 2°39.463 8.8 320 15.2 101370 78
2004-06-01 08:37:33 51°9.769 2°39.436 9.6 316 15.2 101360 78
2004-06-01 08:37:38 51°9.763 2°39.409 8.1 317 15.2 101360 78
2004-06-01 08:37:42 51°9.758 2°39.387 9.3 320 15.3 101360 78
2004-06-01 08:37:46 51°9.753 2°39.366 9 321 15.3 101360 78
2004-06-01 08:37:53 51°9.745 2°39.328 8.9 319 15.3 101370 78
2004-06-01 08:37:58 51°9.739 2°39.301 9.3 319 15.3 101370 78
2004-06-01 08:38:00 51°9.737 2°39.29 9.8 317 15.3 101360 78
2004-06-01 08:38:08 51°9.727 2°39.247 9.9 315 15.3 101360 78
2004-06-01 08:38:13 51°9.721 2°39.22 10.4 327 15.3 101370 78
2004-06-01 08:38:18 51°9.715 2°39.193 10.7 321 15.3 101370 78
2004-06-01 08:38:23 51°9.709 2°39.166 11 321 15.3 101360 78
2004-06-01 08:38:28 51°9.704 2°39.139 11.4 321 15.3 101360 78
2004-06-01 08:38:32 51°9.699 2°39.118 10.7 322 15.3 101370 78
2004-06-01 08:38:38 51°9.692 2°39.086 10.2 318 15.3 101370 78
2004-06-01 08:38:41 51°9.688 2°39.069 10.9 325 15.3 101360 79
2004-06-01 08:38:48 51°9.68 2°39.032 10.1 321 15.3 101360 79
2004-06-01 08:38:52 51°9.676 2°39.01 10.3 322 15.3 101350 78
2004-06-01 08:38:58 51°9.668 2°38.978 11 320 15.3 101350 78
2004-06-01 08:39:02 51°9.664 2°38.957 10.9 317 15.2 101350 78
2004-06-01 08:39:08 51°9.657 2°38.924 11 320 15.2 101350 78
2004-06-01 08:39:12 51°9.652 2°38.903 10.9 320 15.3 101350 79
2004-06-01 08:39:18 51°9.645 2°38.87 10.9 317 15.3 101350 79
2004-06-01 08:39:22 51°9.64 2°38.849 10.4 317 15.3 101360 79
2004-06-01 08:39:28 51°9.633 2°38.817 10.8 321 15.3 101360 79
2004-06-01 08:39:32 51°9.628 2°38.795 9.7 319 15.3 101350 79
2004-06-01 08:39:38 51°9.621 2°38.763 9.9 227 15.3 101350 79
2004-06-01 08:39:42 51°9.617 2°38.742 10.6 45 15.2 101350 79
2004-06-01 08:39:48 51°9.61 2°38.709 9.8 319 15.2 101350 79
2004-06-01 08:39:52 51°9.605 2°38.688 9.7 317 15.3 101360 79
2004-06-01 08:39:58 51°9.598 2°38.656 9.8 317 15.3 101360 79
2004-06-01 08:40:02 51°9.593 2°38.635 10.8 42 15.3 101350 79
2004-06-01 08:40:08 51°9.586 2°38.603 9.8 318 15.3 101350 79
2004-06-01 08:40:12 51°9.581 2°38.581 10.9 321 15.2 101360 79
2004-06-01 08:40:18 51°9.574 2°38.549 11 316 15.2 101360 79
2004-06-01 08:40:23 51°9.568 2°38.522 11.1 317 15.3 101360 79
2004-06-01 08:40:28 51°9.563 2°38.495 10.5 318 15.3 101360 79
2004-06-01 08:40:32 51°9.558 2°38.474 9.8 316 15.3 101350 79
2004-06-01 08:40:38 51°9.551 2°38.442 10.4 227 15.3 101350 79
2004-06-01 08:40:42 51°9.546 2°38.421 9.5 314 15.2 101350 79
2004-06-01 08:40:48 51°9.539 2°38.388 10.5 319 15.2 101350 79
2004-06-01 08:40:52 51°9.534 2°38.367 11.6 324 15.2 101350 79
2004-06-01 08:40:58 51°9.527 2°38.335 10.1 317 15.2 101350 79
2004-06-01 08:41:02 51°9.523 2°38.314 11.3 317 15.2 101350 79
2004-06-01 08:41:08 51°9.516 2°38.282 10.7 318 15.2 101350 79
2004-06-01 08:41:13 51°9.51 2°38.255 9.9 317 15.2 101350 79
2004-06-01 08:41:18 51°9.504 2°38.229 10.7 317 15.2 101350 79
2004-06-01 08:41:22 51°9.5 2°38.207 10.8 314 15.2 101350 79
2004-06-01 08:41:28 51°9.492 2°38.175 10.1 43 15.2 101350 79
2004-06-01 08:41:32 51°9.488 2°38.154 10.9 43 15.2 101350 79
2004-06-01 08:41:38 51°9.481 2°38.122 10.9 44 15.2 101350 79
2004-06-01 08:41:41 51°9.477 2°38.106 11 314 15.2 101350 79
2004-06-01 08:41:48 51°9.469 2°38.069 11 43 15.2 101350 79
2004-06-01 08:41:52 51°9.464 2°38.048 10.4 42 15.2 101350 79
2004-06-01 08:41:58 51°9.457 2°38.016 10.5 321 15.2 101350 79
2004-06-01 08:42:03 51°9.451 2°37.99 12.3 227 15.2 101340 79
2004-06-01 08:42:08 51°9.446 2°37.963 10.7 314 15.2 101340 79
2004-06-01 08:42:12 51°9.441 2°37.942 10.5 40 15.2 101350 79
2004-06-01 08:42:17 51°9.435 2°37.915 10.4 42 15.2 101350 79
2004-06-01 08:42:22 51°9.429 2°37.889 10.9 315 15.2 101350 79
2004-06-01 08:42:28 51°9.422 2°37.857 10.3 42 15.2 101350 79
2004-06-01 08:42:32 51°9.417 2°37.836 11 320 15.2 101340 79
2004-06-01 08:42:38 51°9.41 2°37.804 11.5 42 15.2 101340 79
2004-06-01 08:42:43 51°9.404 2°37.778 10.7 314 15.2 101340 78
2004-06-01 08:42:48 51°9.399 2°37.752 10.9 314 15.2 101340 78
2004-06-01 08:42:53 51°9.393 2°37.725 10.4 43 15.2 101350 78
2004-06-01 08:42:58 51°9.387 2°37.698 11.7 315 15.2 101350 78
2004-06-01 08:43:02 51°9.382 2°37.677 10.2 313 15.2 101340 78
2004-06-01 08:43:08 51°9.375 2°37.646 12 315 15.2 101340 78
2004-06-01 08:43:12 51°9.371 2°37.624 12.3 312 15.2 101340 78
2004-06-01 08:43:16 51°9.366 2°37.603 12.3 312 15.2 101340 78
2004-06-01 08:43:21 51°9.36 2°37.577 11.1 312 15.2 101340 78
2004-06-01 08:43:28 51°9.351 2°37.542 11.4 311 15.2 101340 78
2004-06-01 08:43:32 51°9.345 2°37.523 11.3 312 15.2 101340 78
2004-06-01 08:43:38 51°9.337 2°37.495 12.6 309 15.2 101340 78
2004-06-01 08:43:42 51°9.332 2°37.478 12.1 310 15.2 101340 78
2004-06-01 08:43:48 51°9.323 2°37.452 12.1 314 15.2 101340 78
2004-06-01 08:43:52 51°9.317 2°37.436 11.4 310 15.2 101350 78
2004-06-01 08:43:58 51°9.307 2°37.415 11.2 313 15.2 101350 78
2004-06-01 08:44:03 51°9.299 2°37.398 12.1 313 15.2 101340 78
2004-06-01 08:44:08 51°9.291 2°37.384 10.2 311 15.2 101340 78
2004-06-01 08:44:13 51°9.282 2°37.371 10.7 311 15.2 101340 78
2004-06-01 08:44:18 51°9.275 2°37.358 11.1 307 15.2 101340 78
2004-06-01 08:44:22 51°9.27 2°37.347 10.9 301 15.2 101340 78
2004-06-01 08:44:28 51°9.263 2°37.332 10.4 298 15.2 101340 78
2004-06-01 08:44:33 51°9.258 2°37.319 9.8 297 15.2 101350 78
2004-06-01 08:44:38 51°9.253 2°37.307 9.9 299 15.2 101350 78
2004-06-01 08:44:42 51°9.249 2°37.298 10.2 296 15.2 101350 78
2004-06-01 08:44:48 51°9.244 2°37.285 9.3 297 15.2 101350 78
2004-06-01 08:44:52 51°9.24 2°37.277 8.9 298 15.2 101350 77
2004-06-01 08:44:58 51°9.235 2°37.265 8.8 301 15.2 101350 77
2004-06-01 08:45:03 51°9.231 2°37.257 9.3 297 15.2 101350 77
2004-06-01 08:45:08 51°9.227 2°37.249 10.1 299 15.2 101350 77
2004-06-01 08:45:12 51°9.224 2°37.243 9.6 299 15.2 101360 77
2004-06-01 08:45:18 51°9.219 2°37.236 9.2 297 15.2 101360 77
2004-06-01 08:45:21 51°9.216 2°37.233 9.2 299 15.2 101360 77
2004-06-01 08:45:28 51°9.21 2°37.226 7.9 304 15.2 101360 77
2004-06-01 08:45:32 51°9.207 2°37.223 9.1 298 15.2 101350 77
2004-06-01 08:45:38 51°9.203 2°37.218 8.5 305 15.2 101350 77
2004-06-01 08:45:42 51°9.2 2°37.215 8.1 303 15.2 101360 78
2004-06-01 08:45:48 51°9.195 2°37.212 8.9 308 15.2 101360 78
2004-06-01 08:45:52 51°9.192 2°37.209 9.8 306 15.2 101360 78
2004-06-01 08:45:58 51°9.188 2°37.206 10.6 311 15.2 101360 78
2004-06-01 08:46:02 51°9.185 2°37.203 8.8 306 15.3 101360 78
2004-06-01 08:46:08 51°9.181 2°37.2 9.5 302 15.3 101360 78
2004-06-01 08:46:13 51°9.179 2°37.197 9 301 15.3 101350 78
2004-06-01 08:46:18 51°9.176 2°37.195 9.3 304 15.3 101350 78
2004-06-01 08:46:21 51°9.174 2°37.193 9.6 299 15.3 101350 78
2004-06-01 08:46:28 51°9.171 2°37.189 9.3 296 15.3 101350 78
2004-06-01 08:46:33 51°9.17 2°37.186 8 293 15.3 101350 77
2004-06-01 08:46:38 51°9.168 2°37.184 8.9 288 15.3 101350 77
2004-06-01 08:46:43 51°9.166 2°37.181 9.4 289 15.3 101350 77
2004-06-01 08:46:48 51°9.165 2°37.178 9.2 291 15.3 101350 77
2004-06-01 08:46:53 51°9.164 2°37.176 8.4 286 15.3 101360 77
2004-06-01 08:46:58 51°9.163 2°37.174 8.3 286 15.3 101360 77
2004-06-01 08:47:02 51°9.163 2°37.173 7.6 289 15.3 101360 77
2004-06-01 08:47:08 51°9.162 2°37.172 7.3 289 15.3 101360 77
2004-06-01 08:47:12 51°9.162 2°37.172 6.7 294 15.3 101360 77
2004-06-01 08:47:18 51°9.162 2°37.172 7.7 297 15.3 101360 77
2004-06-01 08:47:22 51°9.162 2°37.172 8.6 303 15.3 101360 77
2004-06-01 08:47:28 51°9.161 2°37.172 9.3 300 15.3 101360 77
2004-06-01 08:47:32 51°9.161 2°37.172 8.9 297 15.3 101360 77
2004-06-01 08:47:38 51°9.161 2°37.172 8.8 298 15.3 101360 77
2004-06-01 08:47:42 51°9.161 2°37.172 9 292 15.3 101360 78
2004-06-01 08:47:48 51°9.161 2°37.172 9 292 15.3 101360 78
2004-06-01 08:47:52 51°9.16 2°37.172 8.1 291 15.3 101360 78
2004-06-01 08:47:58 51°9.16 2°37.172 9.3 293 15.3 101360 78
2004-06-01 08:48:02 51°9.16 2°37.173 8 290 15.4 101360 78
2004-06-01 08:48:08 51°9.16 2°37.173 8.9 291 15.4 101360 78
2004-06-01 08:48:12 51°9.16 2°37.173 7.6 288 15.4 101360 78
2004-06-01 08:48:18 51°9.16 2°37.173 8.4 288 15.4 101360 78
2004-06-01 08:48:21 51°9.16 2°37.174 8.5 292 15.3 101360 78
2004-06-01 08:48:28 51°9.161 2°37.174 7.8 293 15.3 101360 78
2004-06-01 08:48:32 51°9.161 2°37.174 7.2 290 15.3 101360 78
2004-06-01 08:48:38 51°9.161 2°37.175 8.1 292 15.3 101360 78
2004-06-01 08:48:42 51°9.161 2°37.175 8.3 293 15.3 101360 78
2004-06-01 08:48:48 51°9.161 2°37.176 8.1 290 15.3 101360 78
2004-06-01 08:48:53 51°9.161 2°37.177 7.2 294 15.3 101360 78
2004-06-01 08:48:58 51°9.161 2°37.177 7.1 289 15.3 101360 78
2004-06-01 08:49:02 51°9.162 2°37.178 7.8 290 15.3 101360 78
2004-06-01 08:49:08 51°9.162 2°37.178 6.5 289 15.3 101360 78
2004-06-01 08:49:13 51°9.162 2°37.179 6.8 297 15.3 101360 78
2004-06-01 08:49:18 51°9.162 2°37.18 9.2 287 15.3 101360 78
2004-06-01 08:49:22 51°9.163 2°37.18 8.3 292 15.3 101360 77
2004-06-01 08:49:28 51°9.163 2°37.181 8.8 290 15.3 101360 77
2004-06-01 08:49:32 51°9.163 2°37.182 9.3 291 15.3 101360 77
2004-06-01 08:49:38 51°9.164 2°37.183 9 289 15.3 101360 77
2004-06-01 08:49:42 51°9.164 2°37.183 9.3 287 15.3 101360 78
2004-06-01 08:49:48 51°9.165 2°37.184 9.1 293 15.3 101360 78
2004-06-01 08:49:52 51°9.165 2°37.185 9.1 290 15.3 101360 78
2004-06-01 08:49:58 51°9.165 2°37.186 8.2 286 15.3 101360 78
2004-06-01 08:50:02 51°9.166 2°37.187 8.5 282 15.4 101360 78
2004-06-01 08:50:08 51°9.166 2°37.188 8.4 286 15.4 101360 78
2004-06-01 08:50:13 51°9.167 2°37.189 8.2 283 15.4 101360 78
2004-06-01 08:50:18 51°9.167 2°37.19 7.7 284 15.4 101360 78
2004-06-01 08:50:22 51°9.168 2°37.19 7 285 15.4 101360 78
2004-06-01 08:50:28 51°9.168 2°37.191 7 285 15.4 101360 78
2004-06-01 08:50:33 51°9.169 2°37.192 7 275 15.4 101360 78
2004-06-01 08:50:38 51°9.169 2°37.193 7.4 278 15.4 101360 78
2004-06-01 08:50:42 51°9.17 2°37.194 7.1 283 15.4 101360 77
2004-06-01 08:50:48 51°9.171 2°37.195 7.7 284 15.4 101360 77